createdAt,value
2022-08-21T00:00:54.437Z,66.60
2022-08-21T00:03:24.473Z,65.80
2022-08-21T00:05:53.339Z,65.80
2022-08-21T00:08:22.729Z,65.20
2022-08-21T00:10:51.630Z,65.10
2022-08-21T00:13:21.804Z,65.40
2022-08-21T00:15:51.696Z,65.00
2022-08-21T00:18:21.309Z,64.70
2022-08-21T00:20:51.101Z,65.30
2022-08-21T00:23:19.719Z,64.90
2022-08-21T00:25:48.251Z,64.40
2022-08-21T00:28:17.116Z,64.40
2022-08-21T00:30:46.064Z,64.00
2022-08-21T00:33:15.261Z,63.90
2022-08-21T00:35:45.708Z,64.00
2022-08-21T00:38:15.641Z,63.70
2022-08-21T00:40:49.064Z,63.70
2022-08-21T00:43:22.875Z,64.50
2022-08-21T00:45:52.349Z,63.40
2022-08-21T00:48:21.228Z,63.10
2022-08-21T00:50:56.714Z,63.10
2022-08-21T00:53:27.230Z,62.80
2022-08-21T00:55:56.727Z,63.00
2022-08-21T00:58:28.420Z,63.00
2022-08-21T01:00:57.036Z,62.70
2022-08-21T01:03:27.219Z,62.80
2022-08-21T01:05:56.449Z,63.00
2022-08-21T01:08:27.110Z,63.00
2022-08-21T01:10:58.090Z,63.00
2022-08-21T01:13:30.359Z,62.60
2022-08-21T01:16:03.991Z,62.70
2022-08-21T01:18:32.540Z,62.90
2022-08-21T01:21:12.629Z,62.60
2022-08-21T01:23:45.891Z,62.60
2022-08-21T01:26:17.521Z,62.60
2022-08-21T01:28:51.763Z,62.60
2022-08-21T01:31:25.423Z,62.60
2022-08-21T01:33:55.536Z,62.70
2022-08-21T01:36:26.138Z,62.70
2022-08-21T01:38:56.276Z,63.30
2022-08-21T01:41:26.011Z,62.70
2022-08-21T01:43:54.271Z,62.70
2022-08-21T01:46:22.808Z,62.40
2022-08-21T01:48:51.490Z,62.00
2022-08-21T01:51:19.827Z,61.90
2022-08-21T01:53:49.646Z,61.70
2022-08-21T01:56:19.721Z,61.80
2022-08-21T01:58:49.785Z,61.40
2022-08-21T02:01:18.533Z,61.40
2022-08-21T02:03:46.957Z,61.30
2022-08-21T02:06:18.953Z,61.30
2022-08-21T02:08:51.521Z,61.30
2022-08-21T02:11:20.651Z,61.20
2022-08-21T02:13:49.144Z,61.40
2022-08-21T02:16:19.455Z,61.30
2022-08-21T02:18:49.019Z,61.10
2022-08-21T02:21:17.305Z,60.80
2022-08-21T02:23:45.941Z,60.70
2022-08-21T02:26:15.791Z,60.80
2022-08-21T02:28:44.501Z,61.10
2022-08-21T02:31:13.382Z,60.90
2022-08-21T02:33:42.356Z,60.20
2022-08-21T02:36:12.502Z,60.10
2022-08-21T02:38:42.922Z,60.70
2022-08-21T02:41:16.400Z,59.90
2022-08-21T02:43:45.383Z,60.10
2022-08-21T02:46:18.369Z,59.70
2022-08-21T02:48:47.597Z,59.50
2022-08-21T02:51:20.764Z,59.30
2022-08-21T02:53:51.015Z,59.30
2022-08-21T02:56:23.504Z,59.30
2022-08-21T02:58:54.442Z,59.40
2022-08-21T03:01:24.012Z,59.30
2022-08-21T03:03:52.778Z,59.30
2022-08-21T03:06:25.550Z,59.70
2022-08-21T03:08:53.839Z,59.20
2022-08-21T03:11:23.683Z,58.90
2022-08-21T03:13:52.034Z,59.30
2022-08-21T03:16:21.651Z,58.50
2022-08-21T03:18:50.064Z,58.70
2022-08-21T03:21:19.978Z,58.50
2022-08-21T03:23:49.246Z,58.30
2022-08-21T03:26:18.773Z,59.00
2022-08-21T03:28:49.675Z,59.70
2022-08-21T03:31:18.757Z,58.00
2022-08-21T03:33:47.349Z,58.10
2022-08-21T03:36:17.537Z,58.00
2022-08-21T03:38:46.414Z,57.60
2022-08-21T03:41:14.881Z,57.50
2022-08-21T03:43:43.250Z,58.00
2022-08-21T03:46:13.007Z,56.80
2022-08-21T03:48:42.367Z,56.90
2022-08-21T03:51:11.174Z,57.20
2022-08-21T03:53:39.918Z,56.70
2022-08-21T03:56:08.979Z,56.80
2022-08-21T03:58:37.425Z,56.40
2022-08-21T04:01:07.243Z,56.40
2022-08-21T04:03:38.736Z,56.60
2022-08-21T04:06:08.488Z,56.50
2022-08-21T04:08:37.107Z,56.80
2022-08-21T04:11:07.033Z,57.40
2022-08-21T04:13:35.729Z,57.00
2022-08-21T04:16:12.883Z,57.30
2022-08-21T04:18:42.632Z,56.60
2022-08-21T04:21:12.408Z,56.40
2022-08-21T04:23:41.836Z,56.60
2022-08-21T04:26:10.134Z,56.60
2022-08-21T04:28:38.482Z,56.20
2022-08-21T04:31:07.646Z,56.20
2022-08-21T04:33:36.335Z,56.60
2022-08-21T04:36:07.782Z,56.30
2022-08-21T04:38:37.497Z,56.60
2022-08-21T04:41:07.373Z,56.40
2022-08-21T04:43:36.419Z,56.70
2022-08-21T04:46:04.951Z,56.80
2022-08-21T04:48:34.485Z,56.20
2022-08-21T04:51:13.558Z,56.50
2022-08-21T04:53:45.432Z,56.50
2022-08-21T04:56:22.617Z,56.50
2022-08-21T04:58:53.273Z,56.40
2022-08-21T05:01:26.047Z,56.40
2022-08-21T05:04:00.085Z,56.70
2022-08-21T05:06:33.530Z,56.10
2022-08-21T05:09:03.183Z,55.90
2022-08-21T05:11:32.872Z,56.00
2022-08-21T05:14:01.298Z,56.10
2022-08-21T05:16:36.779Z,56.00
2022-08-21T05:19:06.943Z,55.70
2022-08-21T05:21:37.807Z,55.90
2022-08-21T05:24:06.583Z,55.80
2022-08-21T05:26:38.292Z,55.70
2022-08-21T05:29:15.197Z,55.40
2022-08-21T05:31:46.048Z,56.10
2022-08-21T05:34:16.234Z,56.10
2022-08-21T05:36:47.225Z,55.30
2022-08-21T05:39:15.589Z,55.40
2022-08-21T05:41:44.061Z,55.50
2022-08-21T05:44:12.371Z,55.40
2022-08-21T05:46:41.221Z,55.80
2022-08-21T05:49:09.931Z,55.30
2022-08-21T05:51:38.399Z,55.50
2022-08-21T05:54:08.084Z,55.30
2022-08-21T05:56:36.512Z,55.60
2022-08-21T05:59:08.737Z,55.60
2022-08-21T06:01:37.611Z,55.60
2022-08-21T06:04:08.119Z,55.60
2022-08-21T06:06:37.093Z,55.60
2022-08-21T06:09:07.631Z,55.70
2022-08-21T06:11:36.965Z,55.70
2022-08-21T06:14:07.418Z,55.70
2022-08-21T06:16:35.974Z,55.70
2022-08-21T06:19:04.718Z,55.90
2022-08-21T06:21:33.241Z,55.30
2022-08-21T06:24:01.922Z,55.40
2022-08-21T06:26:31.969Z,55.70
2022-08-21T06:29:00.928Z,55.70
2022-08-21T06:31:30.669Z,55.70
2022-08-21T06:33:59.563Z,55.70
2022-08-21T06:36:28.162Z,55.50
2022-08-21T06:38:57.009Z,55.70
2022-08-21T06:41:27.125Z,55.60
2022-08-21T06:43:58.372Z,55.40
2022-08-21T06:46:31.156Z,55.50
2022-08-21T06:49:00.081Z,55.40
2022-08-21T06:51:29.057Z,55.70
2022-08-21T06:53:59.442Z,56.00
2022-08-21T06:56:27.781Z,55.80
2022-08-21T06:58:57.541Z,55.70
2022-08-21T07:01:28.590Z,55.90
2022-08-21T07:03:57.150Z,55.70
2022-08-21T07:06:25.945Z,56.00
2022-08-21T07:08:54.749Z,56.00
2022-08-21T07:11:27.953Z,55.80
2022-08-21T07:13:57.945Z,55.70
2022-08-21T07:16:26.704Z,56.30
2022-08-21T07:18:55.073Z,55.80
2022-08-21T07:21:26.030Z,56.00
2022-08-21T07:23:55.147Z,56.00
2022-08-21T07:26:26.890Z,55.80
2022-08-21T07:28:57.620Z,55.90
2022-08-21T07:31:28.145Z,56.00
2022-08-21T07:33:57.233Z,55.60
2022-08-21T07:36:26.540Z,55.60
2022-08-21T07:38:54.927Z,55.80
2022-08-21T07:41:26.702Z,56.50
2022-08-21T07:43:55.103Z,58.20
2022-08-21T07:46:25.655Z,60.50
2022-08-21T07:48:54.849Z,57.10
2022-08-21T07:51:28.852Z,57.80
2022-08-21T07:53:59.927Z,55.60
2022-08-21T07:56:29.185Z,55.30
2022-08-21T07:58:58.715Z,54.80
2022-08-21T08:01:28.715Z,55.30
2022-08-21T08:03:57.201Z,54.80
2022-08-21T08:06:26.967Z,54.20
2022-08-21T08:08:55.684Z,53.70
2022-08-21T08:11:24.002Z,53.80
2022-08-21T08:13:54.604Z,54.30
2022-08-21T08:16:22.839Z,55.00
2022-08-21T08:18:52.729Z,54.70
2022-08-21T08:21:21.888Z,54.90
2022-08-21T08:23:51.139Z,55.60
2022-08-21T08:26:19.652Z,55.30
2022-08-21T08:28:48.921Z,54.90
2022-08-21T08:31:17.812Z,54.90
2022-08-21T08:33:46.237Z,55.10
2022-08-21T08:36:19.874Z,55.00
2022-08-21T08:38:49.941Z,54.50
2022-08-21T08:41:23.748Z,54.40
2022-08-21T08:43:55.774Z,54.40
2022-08-21T08:46:34.536Z,54.20
2022-08-21T08:49:09.971Z,53.70
2022-08-21T08:51:47.510Z,52.90
2022-08-21T08:54:32.326Z,53.50
2022-08-21T08:57:02.457Z,53.10
2022-08-21T08:59:43.914Z,53.20
2022-08-21T09:02:14.916Z,53.30
2022-08-21T09:04:44.257Z,53.10
2022-08-21T09:07:26.178Z,52.60
2022-08-21T09:10:14.072Z,52.50
2022-08-21T09:12:58.410Z,51.60
2022-08-21T09:15:34.192Z,52.40
2022-08-21T09:18:29.276Z,50.90
2022-08-21T09:21:11.998Z,50.90
2022-08-21T09:23:55.499Z,51.50
2022-08-21T09:26:28.415Z,51.20
2022-08-21T09:29:01.567Z,51.10
2022-08-21T09:31:33.743Z,51.30
2022-08-21T09:34:04.519Z,51.20
2022-08-21T09:36:41.228Z,50.80
2022-08-21T09:39:13.629Z,51.10
2022-08-21T09:41:42.563Z,51.00
2022-08-21T09:44:11.383Z,51.10
2022-08-21T09:46:40.033Z,50.70
2022-08-21T09:49:10.423Z,50.30
2022-08-21T09:51:55.121Z,51.30
2022-08-21T09:54:32.010Z,50.70
2022-08-21T09:57:24.279Z,49.90
2022-08-21T09:59:52.638Z,50.10
2022-08-21T10:02:35.397Z,50.00
2022-08-21T10:05:12.000Z,50.60
2022-08-21T10:07:40.755Z,50.40
2022-08-21T10:10:19.689Z,51.00
2022-08-21T10:13:12.705Z,50.30
2022-08-21T10:15:52.938Z,50.10
2022-08-21T10:18:28.203Z,50.40
2022-08-21T10:21:04.679Z,50.60
2022-08-21T10:23:47.514Z,50.30
2022-08-21T10:26:33.826Z,51.30
2022-08-21T10:29:14.130Z,50.30
2022-08-21T10:31:58.003Z,50.50
2022-08-21T10:34:40.853Z,50.10
2022-08-21T10:37:23.866Z,50.10
2022-08-21T10:40:09.105Z,51.00
2022-08-21T10:42:53.906Z,52.10
2022-08-21T10:45:38.665Z,52.00
2022-08-21T10:48:10.217Z,52.90
2022-08-21T10:50:44.478Z,51.50
2022-08-21T10:53:41.334Z,50.60
2022-08-21T10:56:20.425Z,51.80
2022-08-21T10:59:09.773Z,53.00
2022-08-21T11:01:49.264Z,53.60
2022-08-21T11:04:26.335Z,52.10
2022-08-21T11:07:08.745Z,52.20
2022-08-21T11:09:50.232Z,49.40
2022-08-21T11:12:27.015Z,50.50
2022-08-21T11:15:07.638Z,50.20
2022-08-21T11:17:52.669Z,48.90
2022-08-21T11:20:30.365Z,48.20
2022-08-21T11:23:07.200Z,49.60
2022-08-21T11:25:40.430Z,49.10
2022-08-21T11:28:16.997Z,48.70
2022-08-21T11:31:00.218Z,49.00
2022-08-21T11:33:46.347Z,48.90
2022-08-21T11:36:34.906Z,49.00
2022-08-21T11:39:16.024Z,50.20
2022-08-21T11:41:56.534Z,50.30
2022-08-21T11:44:39.844Z,48.80
2022-08-21T11:47:21.177Z,49.40
2022-08-21T11:50:04.500Z,49.40
2022-08-21T11:52:38.300Z,49.80
2022-08-21T11:55:14.269Z,49.90
2022-08-21T11:57:52.809Z,49.80
2022-08-21T12:00:26.116Z,49.40
2022-08-21T12:03:07.485Z,48.70
2022-08-21T12:05:41.049Z,49.20
2022-08-21T12:08:16.272Z,48.70
2022-08-21T12:11:01.347Z,49.60
2022-08-21T12:13:40.297Z,50.40
2022-08-21T12:16:14.695Z,51.00
2022-08-21T12:18:49.706Z,51.90
2022-08-21T12:21:29.121Z,52.20
2022-08-21T12:24:20.654Z,53.70
2022-08-21T12:26:55.317Z,54.00
2022-08-21T12:29:28.477Z,54.10
2022-08-21T12:32:03.293Z,53.70
2022-08-21T12:34:39.037Z,53.60
2022-08-21T12:37:17.349Z,53.90
2022-08-21T12:39:49.914Z,54.10
2022-08-21T12:42:22.601Z,54.20
2022-08-21T12:44:56.780Z,55.00
2022-08-21T12:47:35.814Z,54.80
2022-08-21T12:50:11.505Z,55.00
2022-08-21T12:52:48.396Z,55.00
2022-08-21T12:55:27.509Z,55.10
2022-08-21T12:57:56.439Z,55.00
2022-08-21T13:00:31.528Z,55.00
2022-08-21T13:03:02.202Z,55.10
2022-08-21T13:05:39.091Z,55.10
2022-08-21T13:08:10.258Z,55.20
2022-08-21T13:10:41.293Z,55.10
2022-08-21T13:13:25.541Z,55.10
2022-08-21T13:16:00.448Z,55.10
2022-08-21T13:18:35.064Z,55.10
2022-08-21T13:21:14.212Z,55.20
2022-08-21T13:23:49.092Z,55.30
2022-08-21T13:26:21.255Z,55.50
2022-08-21T13:28:56.963Z,55.60
2022-08-21T13:31:32.992Z,55.50
2022-08-21T13:34:40.738Z,55.70
2022-08-21T13:37:13.456Z,56.10
2022-08-21T13:39:41.864Z,56.40
2022-08-21T13:42:14.701Z,56.30
2022-08-21T13:44:44.914Z,56.30
2022-08-21T13:47:18.516Z,56.30
2022-08-21T13:49:51.667Z,56.50
2022-08-21T13:52:26.817Z,56.40
2022-08-21T13:55:01.926Z,56.40
2022-08-21T13:57:34.651Z,56.40
2022-08-21T14:00:20.317Z,56.40
2022-08-21T14:02:58.858Z,56.60
2022-08-21T14:05:33.146Z,56.70
2022-08-21T14:08:09.866Z,56.60
2022-08-21T14:10:43.844Z,56.70
2022-08-21T14:13:35.858Z,56.70
2022-08-21T14:16:16.513Z,56.80
2022-08-21T14:18:52.737Z,56.80
2022-08-21T14:21:34.723Z,56.90
2022-08-21T14:24:11.913Z,57.00
2022-08-21T14:26:50.390Z,57.10
2022-08-21T14:29:23.162Z,57.20
2022-08-21T14:31:57.965Z,57.10
2022-08-21T14:34:34.078Z,57.10
2022-08-21T14:37:04.296Z,57.10
2022-08-21T14:39:34.017Z,57.10
2022-08-21T14:42:27.815Z,57.20
2022-08-21T14:45:02.945Z,57.50
2022-08-21T14:47:31.159Z,57.60
2022-08-21T14:49:59.489Z,57.50
2022-08-21T14:52:27.637Z,57.20
2022-08-21T14:54:57.319Z,57.20
2022-08-21T14:57:27.440Z,57.20
2022-08-21T14:59:58.902Z,56.90
2022-08-21T15:02:29.535Z,56.70
2022-08-21T15:05:31.550Z,56.50
2022-08-21T15:08:01.422Z,66.90
2022-08-21T15:10:33.620Z,60.80
2022-08-21T15:13:02.107Z,58.50
2022-08-21T15:15:31.374Z,57.40
2022-08-21T15:17:59.576Z,57.20
2022-08-21T15:20:27.770Z,57.20
2022-08-21T15:22:55.936Z,57.40
2022-08-21T15:25:24.633Z,57.50
2022-08-21T15:27:55.040Z,57.60
2022-08-21T15:30:23.336Z,57.60
2022-08-21T15:32:51.518Z,57.50
2022-08-21T15:35:20.162Z,57.50
2022-08-21T15:37:51.167Z,57.50
2022-08-21T15:40:19.693Z,57.50
2022-08-21T15:42:48.518Z,57.60
2022-08-21T15:45:18.072Z,57.60
2022-08-21T15:47:48.060Z,57.70
2022-08-21T15:50:20.879Z,57.80
2022-08-21T15:52:49.194Z,57.80
2022-08-21T15:55:20.334Z,57.90
2022-08-21T15:57:58.105Z,58.30
2022-08-21T16:00:28.969Z,58.50
2022-08-21T16:03:00.399Z,58.70
2022-08-21T16:05:28.942Z,58.80
2022-08-21T16:08:22.368Z,59.00
2022-08-21T16:10:51.546Z,59.00
2022-08-21T16:13:30.011Z,58.30
2022-08-21T16:16:03.254Z,58.30
2022-08-21T16:18:34.984Z,58.70
2022-08-21T16:21:03.182Z,59.00
2022-08-21T16:23:31.483Z,59.10
2022-08-21T16:26:00.721Z,57.90
2022-08-21T16:28:29.604Z,57.30
2022-08-21T16:31:02.971Z,57.10
2022-08-21T16:33:36.937Z,57.70
2022-08-21T16:36:06.622Z,57.80
2022-08-21T16:38:38.389Z,57.00
2022-08-21T16:41:11.044Z,56.10
2022-08-21T16:43:41.582Z,55.10
2022-08-21T16:46:13.408Z,55.60
2022-08-21T16:48:44.815Z,55.20
2022-08-21T16:51:13.735Z,54.40
2022-08-21T16:53:42.727Z,54.00
2022-08-21T16:56:12.307Z,54.20
2022-08-21T16:58:45.020Z,54.10
2022-08-21T17:01:19.954Z,53.80
2022-08-21T17:03:51.276Z,53.20
2022-08-21T17:06:22.117Z,54.20
2022-08-21T17:08:52.458Z,53.70
2022-08-21T17:11:32.556Z,53.50
2022-08-21T17:14:10.536Z,53.00
2022-08-21T17:16:41.667Z,53.00
2022-08-21T17:19:09.884Z,52.80
2022-08-21T17:21:38.146Z,53.30
2022-08-21T17:24:07.414Z,53.30
2022-08-21T17:26:36.671Z,53.40
2022-08-21T17:29:09.693Z,53.70
2022-08-21T17:31:40.903Z,54.00
2022-08-21T17:34:10.187Z,54.10
2022-08-21T17:36:38.380Z,54.10
2022-08-21T17:39:07.054Z,54.30
2022-08-21T17:41:35.597Z,54.20
2022-08-21T17:44:10.074Z,54.30
2022-08-21T17:46:40.504Z,54.10
2022-08-21T17:49:09.362Z,54.30
2022-08-21T17:51:37.549Z,54.20
2022-08-21T17:54:05.868Z,54.20
2022-08-21T17:56:37.834Z,54.00
2022-08-21T17:59:07.168Z,54.10
2022-08-21T18:01:46.811Z,54.00
2022-08-21T18:04:16.049Z,53.80
2022-08-21T18:06:45.501Z,54.10
2022-08-21T18:09:18.340Z,54.00
2022-08-21T18:11:46.528Z,54.00
2022-08-21T18:14:15.325Z,54.30
2022-08-21T18:16:44.874Z,53.80
2022-08-21T18:19:21.275Z,53.70
2022-08-21T18:21:49.547Z,53.80
2022-08-21T18:24:18.626Z,53.90
2022-08-21T18:26:47.100Z,53.60
2022-08-21T18:29:19.359Z,53.70
2022-08-21T18:31:49.802Z,54.00
2022-08-21T18:34:30.226Z,54.10
2022-08-21T18:36:58.357Z,54.60
2022-08-21T18:39:36.295Z,54.50
2022-08-21T18:42:09.992Z,54.70
2022-08-21T18:44:39.072Z,54.80
2022-08-21T18:47:12.459Z,54.90
2022-08-21T18:49:42.367Z,55.00
2022-08-21T18:52:10.753Z,54.90
2022-08-21T18:54:49.800Z,57.20
2022-08-21T18:57:19.486Z,55.80
2022-08-21T18:59:49.475Z,55.40
2022-08-21T19:02:19.248Z,55.50
2022-08-21T19:07:36.675Z,55.90
2022-08-21T19:10:28.260Z,55.90
2022-08-21T19:12:55.017Z,57.50
2022-08-21T19:15:24.044Z,58.50
2022-08-21T19:17:54.881Z,66.70
2022-08-21T19:20:29.170Z,63.90
2022-08-21T19:23:01.028Z,62.20
2022-08-21T19:25:33.760Z,60.60
2022-08-21T19:28:11.019Z,62.40
2022-08-21T19:30:45.719Z,59.20
2022-08-21T19:33:39.248Z,58.40
2022-08-21T19:36:10.473Z,58.30
2022-08-21T19:38:39.268Z,56.80
2022-08-21T19:41:10.607Z,56.80
2022-08-21T19:43:44.471Z,56.30
2022-08-21T19:46:13.614Z,56.50
2022-08-21T19:48:43.228Z,56.10
2022-08-21T19:51:15.002Z,56.40
2022-08-21T19:53:43.083Z,56.40
2022-08-21T19:56:18.326Z,56.30
2022-08-21T19:58:47.918Z,56.30
2022-08-21T20:01:22.026Z,56.10
2022-08-21T20:03:54.125Z,56.30
2022-08-21T20:06:23.961Z,56.20
2022-08-21T20:09:12.638Z,56.50
2022-08-21T20:11:44.539Z,56.30
2022-08-21T20:14:15.174Z,57.70
2022-08-21T20:16:44.332Z,57.60
2022-08-21T20:19:14.577Z,56.40
2022-08-21T20:21:44.627Z,56.40
2022-08-21T20:24:14.662Z,56.60
2022-08-21T20:26:48.645Z,56.40
2022-08-21T20:29:23.833Z,56.10
2022-08-21T20:31:54.505Z,57.10
2022-08-21T20:34:25.685Z,56.60
2022-08-21T20:36:54.820Z,56.60
2022-08-21T20:39:23.802Z,56.20
2022-08-21T20:41:54.483Z,56.20
2022-08-21T20:44:27.338Z,56.10
2022-08-21T20:46:56.064Z,56.60
2022-08-21T20:49:33.854Z,56.30
2022-08-21T20:52:02.121Z,56.50
2022-08-21T20:54:36.123Z,56.40
2022-08-21T20:57:13.618Z,56.30
2022-08-21T20:59:51.658Z,56.20
2022-08-21T21:02:39.610Z,55.90
2022-08-21T21:05:16.295Z,56.10
2022-08-21T21:07:58.565Z,56.00
2022-08-21T21:10:33.609Z,56.00
2022-08-21T21:13:07.421Z,56.00
2022-08-21T21:15:37.710Z,55.90
2022-08-21T21:18:14.217Z,55.40
2022-08-21T21:20:50.958Z,56.00
2022-08-21T21:23:26.172Z,55.60
2022-08-21T21:26:03.916Z,55.90
2022-08-21T21:28:48.358Z,56.00
2022-08-21T21:31:17.946Z,55.80
2022-08-21T21:33:47.798Z,55.70
2022-08-21T21:36:28.528Z,55.80
2022-08-21T21:39:11.920Z,56.20
2022-08-21T21:41:54.198Z,56.30
2022-08-21T21:44:56.380Z,56.30
2022-08-21T21:47:38.189Z,56.20
2022-08-21T21:50:28.639Z,56.10
2022-08-21T21:53:15.481Z,56.00
2022-08-21T21:56:02.609Z,55.90
2022-08-21T21:58:49.968Z,55.90
2022-08-21T22:01:28.544Z,56.10
2022-08-21T22:06:58.963Z,56.00
2022-08-21T22:09:45.712Z,56.10
2022-08-21T22:12:49.743Z,56.10
2022-08-21T22:15:27.395Z,56.10
2022-08-21T22:18:02.560Z,56.10
2022-08-21T22:20:41.500Z,56.20
2022-08-21T22:23:17.617Z,56.30
2022-08-21T22:25:52.844Z,56.30
2022-08-21T22:28:26.553Z,55.90
2022-08-21T22:31:01.889Z,55.50
2022-08-21T22:33:36.763Z,55.40
2022-08-21T22:36:19.869Z,55.60
2022-08-21T22:38:50.847Z,55.80
2022-08-21T22:41:26.367Z,55.80
2022-08-21T22:44:01.869Z,55.80
2022-08-21T22:46:35.730Z,55.50
2022-08-21T22:49:09.780Z,55.80
2022-08-21T22:51:43.101Z,55.70
2022-08-21T22:54:21.914Z,55.70
2022-08-21T22:57:06.402Z,55.80
2022-08-21T22:59:42.604Z,55.70
2022-08-21T23:02:41.666Z,55.80
2022-08-21T23:05:27.901Z,55.70
2022-08-21T23:08:01.794Z,55.80
2022-08-21T23:10:42.234Z,55.70
2022-08-21T23:13:15.689Z,55.70
2022-08-21T23:15:56.474Z,55.80
2022-08-21T23:18:34.168Z,56.00
2022-08-21T23:21:12.220Z,55.70
2022-08-21T23:24:05.415Z,55.70
2022-08-21T23:26:57.122Z,55.90
2022-08-21T23:29:39.563Z,55.90
2022-08-21T23:32:35.487Z,55.70
2022-08-21T23:35:15.805Z,55.70
2022-08-21T23:37:54.066Z,55.60
2022-08-21T23:40:50.862Z,55.50
2022-08-21T23:43:38.586Z,55.60
2022-08-21T23:46:35.456Z,55.50
2022-08-21T23:49:17.748Z,55.60
2022-08-21T23:52:00.487Z,55.50
2022-08-21T23:54:39.190Z,55.30
2022-08-21T23:57:24.942Z,55.40
